sensor_id;sensor_type;location;lat;lon;timestamp;pressure;altitude;pressure_sealevel;temperature;humidity
78488;BME280;67885;49.758;9.582;2023-08-30T00:01:07;98567.06;;;19.00;54.28
78488;BME280;67885;49.758;9.582;2023-08-30T00:03:34;98547.56;;;18.92;54.26
78488;BME280;67885;49.758;9.582;2023-08-30T00:06:06;98569.16;;;19.05;53.96
78488;BME280;67885;49.758;9.582;2023-08-30T00:08:33;98560.91;;;19.07;53.19
78488;BME280;67885;49.758;9.582;2023-08-30T00:11:01;98566.91;;;19.09;53.90
78488;BME280;67885;49.758;9.582;2023-08-30T00:13:29;98498.00;;;18.66;53.62
78488;BME280;67885;49.758;9.582;2023-08-30T00:15:56;98566.28;;;19.07;54.09
78488;BME280;67885;49.758;9.582;2023-08-30T00:18:23;98556.31;;;19.00;54.42
78488;BME280;67885;49.758;9.582;2023-08-30T00:20:50;98558.09;;;18.93;54.83
78488;BME280;67885;49.758;9.582;2023-08-30T00:23:18;98554.31;;;18.87;54.34
78488;BME280;67885;49.758;9.582;2023-08-30T00:25:44;98554.72;;;18.84;54.25
78488;BME280;67885;49.758;9.582;2023-08-30T00:28:11;98552.38;;;18.81;54.54
78488;BME280;67885;49.758;9.582;2023-08-30T00:30:37;98550.75;;;18.80;55.06
78488;BME280;67885;49.758;9.582;2023-08-30T00:33:04;98577.78;;;18.79;55.07
78488;BME280;67885;49.758;9.582;2023-08-30T00:35:31;98537.69;;;18.77;55.60
78488;BME280;67885;49.758;9.582;2023-08-30T00:37:58;98541.63;;;18.75;55.89
78488;BME280;67885;49.758;9.582;2023-08-30T00:40:26;98545.75;;;18.77;55.91
78488;BME280;67885;49.758;9.582;2023-08-30T00:42:52;98543.91;;;18.78;56.12
78488;BME280;67885;49.758;9.582;2023-08-30T00:45:19;98549.28;;;18.78;56.54
78488;BME280;67885;49.758;9.582;2023-08-30T00:47:46;98549.47;;;18.76;56.90
78488;BME280;67885;49.758;9.582;2023-08-30T00:50:13;98544.31;;;18.75;56.33
78488;BME280;67885;49.758;9.582;2023-08-30T00:52:41;98545.69;;;18.70;56.29
78488;BME280;67885;49.758;9.582;2023-08-30T00:55:09;98543.59;;;18.66;56.80
78488;BME280;67885;49.758;9.582;2023-08-30T00:57:38;98541.28;;;18.63;57.03
78488;BME280;67885;49.758;9.582;2023-08-30T01:00:06;98509.66;;;18.36;57.22
78488;BME280;67885;49.758;9.582;2023-08-30T01:02:33;98544.78;;;18.63;56.74
78488;BME280;67885;49.758;9.582;2023-08-30T01:05:01;98542.31;;;18.62;56.90
78488;BME280;67885;49.758;9.582;2023-08-30T01:07:28;98551.56;;;18.59;56.63
78488;BME280;67885;49.758;9.582;2023-08-30T01:09:55;98542.25;;;18.55;57.03
78488;BME280;67885;49.758;9.582;2023-08-30T01:12:24;98526.00;;;18.42;57.71
78488;BME280;67885;49.758;9.582;2023-08-30T01:15:02;98544.22;;;18.46;57.21
78488;BME280;67885;49.758;9.582;2023-08-30T01:17:35;98539.22;;;18.43;57.12
78488;BME280;67885;49.758;9.582;2023-08-30T01:20:05;98543.75;;;18.43;57.52
78488;BME280;67885;49.758;9.582;2023-08-30T01:22:47;98532.84;;;18.44;57.09
78488;BME280;67885;49.758;9.582;2023-08-30T01:25:30;98537.00;;;18.47;57.03
78488;BME280;67885;49.758;9.582;2023-08-30T01:28:04;98533.09;;;18.49;57.06
78488;BME280;67885;49.758;9.582;2023-08-30T01:30:34;98528.56;;;18.50;57.15
78488;BME280;67885;49.758;9.582;2023-08-30T01:33:04;98515.03;;;18.36;56.81
78488;BME280;67885;49.758;9.582;2023-08-30T01:35:33;98523.28;;;18.57;56.38
78488;BME280;67885;49.758;9.582;2023-08-30T01:38:03;98528.44;;;18.58;56.78
78488;BME280;67885;49.758;9.582;2023-08-30T01:40:35;98511.19;;;18.46;56.85
78488;BME280;67885;49.758;9.582;2023-08-30T01:43:06;98528.00;;;18.54;56.50
78488;BME280;67885;49.758;9.582;2023-08-30T01:45:35;98535.22;;;18.54;56.34
78488;BME280;67885;49.758;9.582;2023-08-30T01:48:04;98529.22;;;18.52;56.45
78488;BME280;67885;49.758;9.582;2023-08-30T01:50:33;98523.41;;;18.48;56.13
78488;BME280;67885;49.758;9.582;2023-08-30T01:53:02;98539.59;;;18.40;56.21
78488;BME280;67885;49.758;9.582;2023-08-30T01:55:31;98539.16;;;18.36;56.32
78488;BME280;67885;49.758;9.582;2023-08-30T01:57:58;98537.06;;;18.32;57.25
78488;BME280;67885;49.758;9.582;2023-08-30T02:00:26;98534.75;;;18.29;56.30
78488;BME280;67885;49.758;9.582;2023-08-30T02:02:53;98528.53;;;18.28;55.38
78488;BME280;67885;49.758;9.582;2023-08-30T02:05:20;98531.22;;;18.28;56.09
78488;BME280;67885;49.758;9.582;2023-08-30T02:07:54;98572.81;;;18.24;55.49
78488;BME280;67885;49.758;9.582;2023-08-30T02:10:27;98520.22;;;18.01;56.11
78488;BME280;67885;49.758;9.582;2023-08-30T02:12:57;98485.81;;;17.90;55.91
78488;BME280;67885;49.758;9.582;2023-08-30T02:15:27;98500.44;;;18.02;55.53
78488;BME280;67885;49.758;9.582;2023-08-30T02:17:57;98533.19;;;18.19;55.53
78488;BME280;67885;49.758;9.582;2023-08-30T02:20:25;98525.16;;;18.19;56.17
78488;BME280;67885;49.758;9.582;2023-08-30T02:22:51;98531.34;;;18.20;55.36
78488;BME280;67885;49.758;9.582;2023-08-30T02:25:18;98529.63;;;18.12;55.10
78488;BME280;67885;49.758;9.582;2023-08-30T02:27:49;98538.41;;;18.06;55.99
78488;BME280;67885;49.758;9.582;2023-08-30T02:30:16;98534.63;;;18.00;56.00
78488;BME280;67885;49.758;9.582;2023-08-30T02:32:44;98536.66;;;17.98;56.21
78488;BME280;67885;49.758;9.582;2023-08-30T02:35:10;98534.44;;;18.02;55.83
78488;BME280;67885;49.758;9.582;2023-08-30T02:37:37;98531.84;;;18.09;55.49
78488;BME280;67885;49.758;9.582;2023-08-30T02:40:07;98529.16;;;18.09;56.26
78488;BME280;67885;49.758;9.582;2023-08-30T02:42:34;98535.72;;;18.06;56.08
78488;BME280;67885;49.758;9.582;2023-08-30T02:45:00;98542.28;;;18.03;56.20
78488;BME280;67885;49.758;9.582;2023-08-30T02:47:27;98539.53;;;17.97;55.79
78488;BME280;67885;49.758;9.582;2023-08-30T02:49:55;98541.47;;;17.88;56.56
78488;BME280;67885;49.758;9.582;2023-08-30T02:52:22;98545.53;;;17.84;56.18
78488;BME280;67885;49.758;9.582;2023-08-30T02:54:48;98538.03;;;17.79;56.34
78488;BME280;67885;49.758;9.582;2023-08-30T02:57:15;98471.09;;;17.34;56.20
78488;BME280;67885;49.758;9.582;2023-08-30T02:59:41;98546.53;;;17.83;56.57
78488;BME280;67885;49.758;9.582;2023-08-30T03:02:08;98542.09;;;17.90;57.10
78488;BME280;67885;49.758;9.582;2023-08-30T03:04:34;98438.81;;;17.36;56.34
78488;BME280;67885;49.758;9.582;2023-08-30T03:07:05;98540.81;;;18.01;56.38
78488;BME280;67885;49.758;9.582;2023-08-30T03:09:31;98536.72;;;18.05;56.30
78488;BME280;67885;49.758;9.582;2023-08-30T03:11:58;98510.31;;;18.02;56.48
78488;BME280;67885;49.758;9.582;2023-08-30T03:14:25;98524.31;;;18.19;55.75
78488;BME280;67885;49.758;9.582;2023-08-30T03:16:51;98522.09;;;18.23;55.77
78488;BME280;67885;49.758;9.582;2023-08-30T03:19:18;98514.25;;;18.21;55.81
78488;BME280;67885;49.758;9.582;2023-08-30T03:21:45;98523.97;;;18.22;55.57
78488;BME280;67885;49.758;9.582;2023-08-30T03:24:13;98567.56;;;18.16;55.57
78488;BME280;67885;49.758;9.582;2023-08-30T03:26:42;98528.59;;;18.13;56.41
78488;BME280;67885;49.758;9.582;2023-08-30T03:29:09;98527.50;;;18.08;55.90
78488;BME280;67885;49.758;9.582;2023-08-30T03:31:36;98532.38;;;18.04;56.30
78488;BME280;67885;49.758;9.582;2023-08-30T03:34:03;98526.59;;;18.00;56.28
78488;BME280;67885;49.758;9.582;2023-08-30T03:36:29;98526.78;;;17.99;56.61
78488;BME280;67885;49.758;9.582;2023-08-30T03:38:56;98523.91;;;18.00;56.92
78488;BME280;67885;49.758;9.582;2023-08-30T03:41:24;98527.41;;;18.01;56.66
78488;BME280;67885;49.758;9.582;2023-08-30T03:43:50;98528.25;;;18.01;56.32
78488;BME280;67885;49.758;9.582;2023-08-30T03:46:17;98527.41;;;18.01;56.58
78488;BME280;67885;49.758;9.582;2023-08-30T03:48:44;98526.78;;;17.99;56.61
78488;BME280;67885;49.758;9.582;2023-08-30T03:51:10;98519.28;;;17.94;56.42
78488;BME280;67885;49.758;9.582;2023-08-30T03:53:38;98541.06;;;17.91;56.89
78488;BME280;67885;49.758;9.582;2023-08-30T03:56:05;98514.69;;;17.73;56.25
78488;BME280;67885;49.758;9.582;2023-08-30T03:58:33;98522.31;;;17.91;56.55
78488;BME280;67885;49.758;9.582;2023-08-30T04:00:59;98452.84;;;17.23;57.50
78488;BME280;67885;49.758;9.582;2023-08-30T04:03:26;98522.91;;;18.01;56.56
78488;BME280;67885;49.758;9.582;2023-08-30T04:05:55;98521.50;;;18.06;56.68
78488;BME280;67885;49.758;9.582;2023-08-30T04:08:22;98511.81;;;18.05;56.02
78488;BME280;67885;49.758;9.582;2023-08-30T04:10:52;98516.25;;;17.97;56.57
78488;BME280;67885;49.758;9.582;2023-08-30T04:13:20;98516.63;;;17.94;56.77
78488;BME280;67885;49.758;9.582;2023-08-30T04:15:48;98514.13;;;17.93;56.86
78488;BME280;67885;49.758;9.582;2023-08-30T04:18:15;98492.16;;;17.82;57.01
78488;BME280;67885;49.758;9.582;2023-08-30T04:20:44;98515.88;;;18.00;56.82
78488;BME280;67885;49.758;9.582;2023-08-30T04:23:11;98515.88;;;18.00;56.48
78488;BME280;67885;49.758;9.582;2023-08-30T04:25:38;98511.06;;;17.96;57.06
78488;BME280;67885;49.758;9.582;2023-08-30T04:28:05;98510.63;;;17.92;56.93
78488;BME280;67885;49.758;9.582;2023-08-30T04:30:32;98505.91;;;17.94;57.47
78488;BME280;67885;49.758;9.582;2023-08-30T04:33:00;98510.25;;;17.95;56.92
78488;BME280;67885;49.758;9.582;2023-08-30T04:35:28;98509.31;;;17.88;56.69
78488;BME280;67885;49.758;9.582;2023-08-30T04:37:55;98516.06;;;17.84;57.05
78488;BME280;67885;49.758;9.582;2023-08-30T04:40:22;98511.91;;;17.81;56.98
78488;BME280;67885;49.758;9.582;2023-08-30T04:42:48;98512.63;;;17.75;57.08
78488;BME280;67885;49.758;9.582;2023-08-30T04:45:15;98522.06;;;17.71;57.54
78488;BME280;67885;49.758;9.582;2023-08-30T04:47:41;98523.06;;;17.70;57.59
78488;BME280;67885;49.758;9.582;2023-08-30T04:50:12;98505.63;;;17.59;58.07
78488;BME280;67885;49.758;9.582;2023-08-30T04:52:38;98422.22;;;17.11;57.86
78488;BME280;67885;49.758;9.582;2023-08-30T04:55:06;98524.19;;;17.76;57.56
78488;BME280;67885;49.758;9.582;2023-08-30T04:57:33;98521.97;;;17.79;57.82
78488;BME280;67885;49.758;9.582;2023-08-30T05:00:00;98521.75;;;17.81;58.26
78488;BME280;67885;49.758;9.582;2023-08-30T05:02:30;98520.56;;;17.83;57.86
78488;BME280;67885;49.758;9.582;2023-08-30T05:04:57;98516.88;;;17.84;58.17
78488;BME280;67885;49.758;9.582;2023-08-30T05:07:25;98505.97;;;17.86;57.84
78488;BME280;67885;49.758;9.582;2023-08-30T05:09:51;98513.19;;;17.85;57.47
78488;BME280;67885;49.758;9.582;2023-08-30T05:12:18;98514.94;;;17.93;61.16
78488;BME280;67885;49.758;9.582;2023-08-30T05:14:44;98512.59;;;18.20;57.31
78488;BME280;67885;49.758;9.582;2023-08-30T05:17:11;98512.94;;;18.32;56.40
78488;BME280;67885;49.758;9.582;2023-08-30T05:19:38;98515.03;;;18.36;56.61
78488;BME280;67885;49.758;9.582;2023-08-30T05:22:05;98524.72;;;18.37;56.53
78488;BME280;67885;49.758;9.582;2023-08-30T05:24:32;98515.47;;;18.40;56.30
78488;BME280;67885;49.758;9.582;2023-08-30T05:26:59;98511.59;;;18.43;56.04
78488;BME280;67885;49.758;9.582;2023-08-30T05:29:26;98511.59;;;18.43;56.45
78488;BME280;67885;49.758;9.582;2023-08-30T05:31:52;98522.94;;;18.45;56.19
78488;BME280;67885;49.758;9.582;2023-08-30T05:34:19;98526.41;;;18.39;56.21
78488;BME280;67885;49.758;9.582;2023-08-30T05:36:46;98517.00;;;18.28;56.96
78488;BME280;67885;49.758;9.582;2023-08-30T05:39:12;98525.97;;;18.20;56.45
78488;BME280;67885;49.758;9.582;2023-08-30T05:41:41;98456.88;;;17.64;57.01
78488;BME280;67885;49.758;9.582;2023-08-30T05:44:07;98512.06;;;18.10;57.04
78488;BME280;67885;49.758;9.582;2023-08-30T05:46:34;98509.84;;;17.98;57.30
78488;BME280;67885;49.758;9.582;2023-08-30T05:49:01;98512.81;;;17.89;57.61
78488;BME280;67885;49.758;9.582;2023-08-30T05:51:28;98513.19;;;17.85;58.76
78488;BME280;67885;49.758;9.582;2023-08-30T05:53:55;98522.69;;;17.88;58.08
78488;BME280;67885;49.758;9.582;2023-08-30T05:56:22;98514.84;;;17.86;57.70
78488;BME280;67885;49.758;9.582;2023-08-30T05:58:50;98508.22;;;17.82;58.68
78488;BME280;67885;49.758;9.582;2023-08-30T06:01:18;98495.28;;;17.56;58.41
78488;BME280;67885;49.758;9.582;2023-08-30T06:03:45;98507.75;;;17.79;58.72
78488;BME280;67885;49.758;9.582;2023-08-30T06:06:12;98509.03;;;17.83;58.39
78488;BME280;67885;49.758;9.582;2023-08-30T06:08:38;98507.94;;;17.92;58.54
78488;BME280;67885;49.758;9.582;2023-08-30T06:11:05;98505.16;;;18.00;58.06
78488;BME280;67885;49.758;9.582;2023-08-30T06:13:32;98507.06;;;18.07;57.23
78488;BME280;67885;49.758;9.582;2023-08-30T06:16:00;98492.59;;;18.01;57.86
78488;BME280;67885;49.758;9.582;2023-08-30T06:18:29;98508.19;;;18.12;57.68
78488;BME280;67885;49.758;9.582;2023-08-30T06:20:56;98504.09;;;18.16;57.89
78488;BME280;67885;49.758;9.582;2023-08-30T06:23:23;98504.34;;;18.22;57.35
78488;BME280;67885;49.758;9.582;2023-08-30T06:25:56;98505.19;;;18.22;57.65
78488;BME280;67885;49.758;9.582;2023-08-30T06:28:24;98504.19;;;18.23;57.72
78488;BME280;67885;49.758;9.582;2023-08-30T06:30:50;98507.09;;;18.28;57.50
78488;BME280;67885;49.758;9.582;2023-08-30T06:33:18;98506.09;;;18.29;57.65
78488;BME280;67885;49.758;9.582;2023-08-30T06:35:47;98508.16;;;18.27;58.14
78488;BME280;67885;49.758;9.582;2023-08-30T06:38:14;98510.44;;;18.30;58.33
78488;BME280;67885;49.758;9.582;2023-08-30T06:40:43;98505.69;;;18.32;57.77
78488;BME280;67885;49.758;9.582;2023-08-30T06:43:10;98508.38;;;18.32;57.72
78488;BME280;67885;49.758;9.582;2023-08-30T06:45:37;98512.72;;;18.33;58.52
78488;BME280;67885;49.758;9.582;2023-08-30T06:48:04;98516.50;;;18.39;58.93
78488;BME280;67885;49.758;9.582;2023-08-30T06:50:33;98509.38;;;18.46;59.61
78488;BME280;67885;49.758;9.582;2023-08-30T06:52:59;98511.94;;;18.54;59.22
78488;BME280;67885;49.758;9.582;2023-08-30T06:55:26;98498.56;;;18.61;58.86
78488;BME280;67885;49.758;9.582;2023-08-30T06:57:53;98501.31;;;18.68;58.40
78488;BME280;67885;49.758;9.582;2023-08-30T07:00:19;98506.28;;;18.71;57.59
78488;BME280;67885;49.758;9.582;2023-08-30T07:02:46;98502.75;;;18.70;57.95
78488;BME280;67885;49.758;9.582;2023-08-30T07:05:13;98497.84;;;18.74;58.84
78488;BME280;67885;49.758;9.582;2023-08-30T07:07:41;98483.63;;;18.74;59.39
78488;BME280;67885;49.758;9.582;2023-08-30T07:10:09;98494.63;;;18.85;58.54
78488;BME280;67885;49.758;9.582;2023-08-30T07:12:35;98494.31;;;18.89;58.84
78488;BME280;67885;49.758;9.582;2023-08-30T07:15:02;98492.25;;;18.91;58.01
78488;BME280;67885;49.758;9.582;2023-08-30T07:17:29;98487.91;;;18.90;58.03
78488;BME280;67885;49.758;9.582;2023-08-30T07:19:56;98485.41;;;18.88;58.29
78488;BME280;67885;49.758;9.582;2023-08-30T07:22:23;98485.03;;;18.91;58.73
78488;BME280;67885;49.758;9.582;2023-08-30T07:24:51;98487.31;;;18.94;58.82
78488;BME280;67885;49.758;9.582;2023-08-30T07:27:18;98478.31;;;19.02;57.73
78488;BME280;67885;49.758;9.582;2023-08-30T07:29:44;98485.34;;;19.10;58.04
78488;BME280;67885;49.758;9.582;2023-08-30T07:32:11;98468.38;;;19.02;58.28
78488;BME280;67885;49.758;9.582;2023-08-30T07:34:37;98482.31;;;19.13;58.05
78488;BME280;67885;49.758;9.582;2023-08-30T07:37:04;98487.06;;;19.17;58.49
78488;BME280;67885;49.758;9.582;2023-08-30T07:39:31;98488.38;;;19.28;59.24
78488;BME280;67885;49.758;9.582;2023-08-30T07:41:59;98497.75;;;19.39;58.24
78488;BME280;67885;49.758;9.582;2023-08-30T07:44:25;98493.03;;;19.48;59.47
78488;BME280;67885;49.758;9.582;2023-08-30T07:46:52;98490.41;;;19.61;58.75
78488;BME280;67885;49.758;9.582;2023-08-30T07:49:19;98487.81;;;19.75;57.55
78488;BME280;67885;49.758;9.582;2023-08-30T07:51:45;98491.59;;;19.87;58.02
78488;BME280;67885;49.758;9.582;2023-08-30T07:54:12;98487.53;;;20.04;57.74
78488;BME280;67885;49.758;9.582;2023-08-30T07:56:39;98485.31;;;20.15;57.66
78488;BME280;67885;49.758;9.582;2023-08-30T07:59:07;98483.44;;;20.15;56.35
78488;BME280;67885;49.758;9.582;2023-08-30T08:01:33;98479.94;;;20.21;56.24
78488;BME280;67885;49.758;9.582;2023-08-30T08:04:00;98480.16;;;20.27;57.67
78488;BME280;67885;49.758;9.582;2023-08-30T08:06:26;98477.28;;;20.35;55.92
78488;BME280;67885;49.758;9.582;2023-08-30T08:08:53;98481.81;;;20.41;56.30
78488;BME280;67885;49.758;9.582;2023-08-30T08:11:20;98477.31;;;20.48;56.52
78488;BME280;67885;49.758;9.582;2023-08-30T08:13:46;98463.25;;;20.66;56.38
78488;BME280;67885;49.758;9.582;2023-08-30T08:16:14;98461.41;;;20.80;56.64
78488;BME280;67885;49.758;9.582;2023-08-30T08:18:41;98448.75;;;20.81;56.27
78488;BME280;67885;49.758;9.582;2023-08-30T08:21:08;98460.75;;;20.98;55.76
78488;BME280;67885;49.758;9.582;2023-08-30T08:23:34;98464.50;;;21.11;56.01
78488;BME280;67885;49.758;9.582;2023-08-30T08:26:01;98467.34;;;21.22;54.62
78488;BME280;67885;49.758;9.582;2023-08-30T08:28:28;98464.22;;;21.32;54.75
78488;BME280;67885;49.758;9.582;2023-08-30T08:30:55;98466.50;;;21.42;54.00
78488;BME280;67885;49.758;9.582;2023-08-30T08:33:23;98466.06;;;21.45;54.89
78488;BME280;67885;49.758;9.582;2023-08-30T08:35:50;98468.97;;;21.57;55.63
78488;BME280;67885;49.758;9.582;2023-08-30T08:38:16;98469.97;;;21.69;53.52
78488;BME280;67885;49.758;9.582;2023-08-30T08:40:43;98469.91;;;21.83;54.48
78488;BME280;67885;49.758;9.582;2023-08-30T08:43:10;98470.88;;;21.95;53.79
78488;BME280;67885;49.758;9.582;2023-08-30T08:45:37;98474.84;;;21.93;52.36
78488;BME280;67885;49.758;9.582;2023-08-30T08:48:05;98450.84;;;21.78;53.09
78488;BME280;67885;49.758;9.582;2023-08-30T08:50:34;98462.44;;;21.78;54.05
78488;BME280;67885;49.758;9.582;2023-08-30T08:53:02;98463.34;;;21.65;53.78
78488;BME280;67885;49.758;9.582;2023-08-30T08:55:31;98464.84;;;21.54;54.35
78488;BME280;67885;49.758;9.582;2023-08-30T08:57:58;98461.50;;;21.59;55.11
78488;BME280;67885;49.758;9.582;2023-08-30T09:00:25;98462.34;;;21.60;53.87
78488;BME280;67885;49.758;9.582;2023-08-30T09:02:54;98464.19;;;21.59;55.24
78488;BME280;67885;49.758;9.582;2023-08-30T09:05:21;98462.53;;;21.58;53.81
78488;BME280;67885;49.758;9.582;2023-08-30T09:07:50;98460.25;;;21.62;53.96
78488;BME280;67885;49.758;9.582;2023-08-30T09:10:20;98458.53;;;21.74;54.18
78488;BME280;67885;49.758;9.582;2023-08-30T09:12:46;98457.47;;;21.82;53.80
78488;BME280;67885;49.758;9.582;2023-08-30T09:15:13;98468.44;;;21.87;53.87
78488;BME280;67885;49.758;9.582;2023-08-30T09:17:40;98466.53;;;21.94;54.25
78488;BME280;67885;49.758;9.582;2023-08-30T09:20:09;98463.41;;;21.97;53.44
78488;BME280;67885;49.758;9.582;2023-08-30T09:22:37;98469.59;;;22.04;53.38
78488;BME280;67885;49.758;9.582;2023-08-30T09:25:06;98466.88;;;22.11;53.89
78488;BME280;67885;49.758;9.582;2023-08-30T09:27:35;98468.47;;;22.19;53.62
78488;BME280;67885;49.758;9.582;2023-08-30T09:30:06;98464.47;;;22.28;52.57
78488;BME280;67885;49.758;9.582;2023-08-30T09:32:38;98459.47;;;22.32;52.45
78488;BME280;67885;49.758;9.582;2023-08-30T09:35:06;98465.09;;;22.37;52.15
78488;BME280;67885;49.758;9.582;2023-08-30T09:37:33;98463.97;;;22.45;51.40
78488;BME280;67885;49.758;9.582;2023-08-30T09:39:59;98455.97;;;22.63;52.81
78488;BME280;67885;49.758;9.582;2023-08-30T09:42:28;98457.72;;;22.76;50.60
78488;BME280;67885;49.758;9.582;2023-08-30T09:44:56;98452.13;;;22.78;51.47
78488;BME280;67885;49.758;9.582;2023-08-30T09:47:24;98454.81;;;22.78;50.57
78488;BME280;67885;49.758;9.582;2023-08-30T09:49:54;98454.69;;;22.66;51.26
78488;BME280;67885;49.758;9.582;2023-08-30T09:52:23;98470.72;;;22.61;51.78
78488;BME280;67885;49.758;9.582;2023-08-30T09:54:51;98450.22;;;22.53;51.70
78488;BME280;67885;49.758;9.582;2023-08-30T09:57:20;98452.16;;;22.46;52.10
78488;BME280;67885;49.758;9.582;2023-08-30T09:59:50;98441.81;;;22.43;51.84
78488;BME280;67885;49.758;9.582;2023-08-30T10:02:17;98437.00;;;22.45;51.88
78488;BME280;67885;49.758;9.582;2023-08-30T10:04:45;98435.56;;;22.42;52.20
78488;BME280;67885;49.758;9.582;2023-08-30T10:07:12;98433.75;;;22.36;52.08
78488;BME280;67885;49.758;9.582;2023-08-30T10:09:41;98429.44;;;22.21;51.31
78488;BME280;67885;49.758;9.582;2023-08-30T10:12:10;98419.59;;;22.09;52.65
78488;BME280;67885;49.758;9.582;2023-08-30T10:14:37;98428.75;;;22.01;51.95
78488;BME280;67885;49.758;9.582;2023-08-30T10:17:07;98421.50;;;21.95;52.16
78488;BME280;67885;49.758;9.582;2023-08-30T10:19:36;98424.84;;;21.97;54.00
78488;BME280;67885;49.758;9.582;2023-08-30T10:22:06;98419.22;;;21.98;53.41
78488;BME280;67885;49.758;9.582;2023-08-30T10:24:38;98429.53;;;22.08;54.06
78488;BME280;67885;49.758;9.582;2023-08-30T10:27:08;98424.75;;;22.10;53.04
78488;BME280;67885;49.758;9.582;2023-08-30T10:29:38;98424.94;;;22.15;52.81
78488;BME280;67885;49.758;9.582;2023-08-30T10:32:07;98421.03;;;22.11;52.88
78488;BME280;67885;49.758;9.582;2023-08-30T10:34:35;98421.84;;;22.12;54.32
78488;BME280;67885;49.758;9.582;2023-08-30T10:37:06;98421.38;;;22.21;53.21
78488;BME280;67885;49.758;9.582;2023-08-30T10:39:34;98414.72;;;22.24;53.57
78488;BME280;67885;49.758;9.582;2023-08-30T10:42:08;98410.56;;;22.21;53.58
78488;BME280;67885;49.758;9.582;2023-08-30T10:44:37;98404.16;;;22.22;54.10
78488;BME280;67885;49.758;9.582;2023-08-30T10:47:19;98411.19;;;22.23;54.34
78488;BME280;67885;49.758;9.582;2023-08-30T10:49:49;98446.47;;;22.22;53.10
78488;BME280;67885;49.758;9.582;2023-08-30T10:52:16;98388.19;;;22.21;52.27
78488;BME280;67885;49.758;9.582;2023-08-30T10:54:43;98400.94;;;22.39;53.23
78488;BME280;67885;49.758;9.582;2023-08-30T10:57:14;98399.84;;;22.47;51.91
78488;BME280;67885;49.758;9.582;2023-08-30T11:00:04;98394.94;;;22.62;52.30
78488;BME280;67885;49.758;9.582;2023-08-30T11:02:32;98395.44;;;22.78;51.35
78488;BME280;67885;49.758;9.582;2023-08-30T11:04:59;98388.47;;;22.88;49.47
78488;BME280;67885;49.758;9.582;2023-08-30T11:07:26;98379.75;;;22.86;48.51
78488;BME280;67885;49.758;9.582;2023-08-30T11:09:53;98373.69;;;22.91;49.54
78488;BME280;67885;49.758;9.582;2023-08-30T11:12:20;98382.84;;;23.08;51.50
78488;BME280;67885;49.758;9.582;2023-08-30T11:14:47;98377.94;;;23.24;49.42
78488;BME280;67885;49.758;9.582;2023-08-30T11:17:15;98376.72;;;23.38;48.66
78488;BME280;67885;49.758;9.582;2023-08-30T11:19:43;98376.63;;;23.45;48.72
78488;BME280;67885;49.758;9.582;2023-08-30T11:22:12;98376.13;;;23.55;47.71
78488;BME280;67885;49.758;9.582;2023-08-30T11:24:39;98366.41;;;23.66;46.68
78488;BME280;67885;49.758;9.582;2023-08-30T11:27:06;98364.28;;;23.68;45.95
78488;BME280;67885;49.758;9.582;2023-08-30T11:29:33;98365.75;;;23.82;47.94
78488;BME280;67885;49.758;9.582;2023-08-30T11:32:00;98361.25;;;23.95;45.85
78488;BME280;67885;49.758;9.582;2023-08-30T11:34:26;98353.97;;;24.07;44.80
78488;BME280;67885;49.758;9.582;2023-08-30T11:36:54;98347.53;;;24.20;44.73
78488;BME280;67885;49.758;9.582;2023-08-30T11:39:21;98348.59;;;24.31;43.78
78488;BME280;67885;49.758;9.582;2023-08-30T11:41:50;98348.72;;;24.36;43.74
78488;BME280;67885;49.758;9.582;2023-08-30T11:44:17;98346.88;;;24.36;43.59
78488;BME280;67885;49.758;9.582;2023-08-30T11:46:44;98337.22;;;24.40;42.44
78488;BME280;67885;49.758;9.582;2023-08-30T11:49:12;98342.72;;;24.46;44.18
78488;BME280;67885;49.758;9.582;2023-08-30T11:51:39;98352.03;;;24.50;43.79
78488;BME280;67885;49.758;9.582;2023-08-30T11:54:08;98358.53;;;24.49;44.95
78488;BME280;67885;49.758;9.582;2023-08-30T11:56:36;98348.88;;;24.53;43.06
78488;BME280;67885;49.758;9.582;2023-08-30T11:59:03;98310.50;;;24.32;41.97
78488;BME280;67885;49.758;9.582;2023-08-30T12:01:30;98351.72;;;24.58;44.24
78488;BME280;67885;49.758;9.582;2023-08-30T12:03:56;98343.09;;;24.61;42.98
78488;BME280;67885;49.758;9.582;2023-08-30T12:06:23;98348.41;;;24.56;43.22
78488;BME280;67885;49.758;9.582;2023-08-30T12:08:57;98346.50;;;24.56;43.16
78488;BME280;67885;49.758;9.582;2023-08-30T12:11:25;98349.22;;;24.56;43.65
78488;BME280;67885;49.758;9.582;2023-08-30T12:14:01;98353.34;;;24.59;44.55
78488;BME280;67885;49.758;9.582;2023-08-30T12:16:28;98351.22;;;24.61;42.77
78488;BME280;67885;49.758;9.582;2023-08-30T12:18:54;98256.72;;;24.00;43.22
78488;BME280;67885;49.758;9.582;2023-08-30T12:21:21;98348.19;;;24.69;44.07
78488;BME280;67885;49.758;9.582;2023-08-30T12:23:48;98339.97;;;24.76;42.01
78488;BME280;67885;49.758;9.582;2023-08-30T12:26:14;98348.41;;;24.80;41.98
78488;BME280;67885;49.758;9.582;2023-08-30T12:28:43;98341.94;;;24.81;41.47
78488;BME280;67885;49.758;9.582;2023-08-30T12:31:10;98312.63;;;24.54;41.40
78488;BME280;67885;49.758;9.582;2023-08-30T12:33:37;98335.47;;;24.82;42.02
78488;BME280;67885;49.758;9.582;2023-08-30T12:36:06;98334.19;;;24.84;41.25
78488;BME280;67885;49.758;9.582;2023-08-30T12:38:32;98332.63;;;24.88;41.47
78488;BME280;67885;49.758;9.582;2023-08-30T12:40:59;98333.81;;;24.92;40.91
78488;BME280;67885;49.758;9.582;2023-08-30T12:43:26;98328.41;;;24.92;41.22
78488;BME280;67885;49.758;9.582;2023-08-30T12:45:54;98299.44;;;24.81;40.88
78488;BME280;67885;49.758;9.582;2023-08-30T12:48:21;98324.50;;;25.00;41.26
78488;BME280;67885;49.758;9.582;2023-08-30T12:50:48;98324.00;;;25.03;41.33
78488;BME280;67885;49.758;9.582;2023-08-30T12:53:15;98322.47;;;25.07;41.22
78488;BME280;67885;49.758;9.582;2023-08-30T12:55:43;98317.41;;;25.11;40.81
78488;BME280;67885;49.758;9.582;2023-08-30T12:58:10;98309.03;;;25.13;40.82
78488;BME280;67885;49.758;9.582;2023-08-30T13:00:37;98313.47;;;25.19;41.22
78488;BME280;67885;49.758;9.582;2023-08-30T13:03:05;98314.66;;;25.23;41.27